Lees Creek, Louisiana
Current Conditions -  °F | °C
As of 5:53 AM on Saturday 01 Nov 2014 (Local Time) from KASD Reporting Station
Clear Clear  
Wind Chill: 35°   Ceiling: Unl
Heat Index: 41°   Visibility: 10mi
Dew Point: 25°   Wind: 9mph
Humidity: 53%   Direction: 10°N
Pressure: 30.27"   Gusts: NA
Location:  30.7419°N, 89.8828°W
Report Text: KASD 011053Z AUTO 01008KT 10SM CLR 05/M04 A3027 RMK AO2 SLP251 T00501039
Loading
Personal Weather Stations






























Interactive Weather Map
Tropical Storm Tracking
New forecast layout! Learn more

10-Day Weather Forecast

Advertisements
Track Severe Weather on mobile